createdAt,value
2016-08-12T00:00:31.165Z,99.99
2016-08-12T00:01:31.153Z,99.99
2016-08-12T00:02:31.851Z,99.99
2016-08-12T00:03:31.131Z,99.99
2016-08-12T00:04:31.833Z,99.99
2016-08-12T00:05:31.109Z,99.99
2016-08-12T00:06:31.111Z,99.99
2016-08-12T00:07:31.794Z,99.99
2016-08-12T00:08:31.083Z,99.99
2016-08-12T00:09:31.068Z,99.99
2016-08-12T00:10:31.053Z,99.99
2016-08-12T00:11:31.044Z,99.99
2016-08-12T00:12:31.737Z,99.99
2016-08-12T00:13:31.019Z,99.99
2016-08-12T00:14:31.007Z,99.99
2016-08-12T00:15:30.996Z,99.99
2016-08-12T00:16:31.697Z,99.99
2016-08-12T00:17:31.681Z,99.99
2016-08-12T00:18:31.674Z,99.99
2016-08-12T00:19:30.954Z,99.99
2016-08-12T00:20:30.944Z,99.99
2016-08-12T00:21:31.639Z,99.99
2016-08-12T00:22:30.918Z,99.99
2016-08-12T00:23:30.907Z,99.99
2016-08-12T00:24:31.605Z,99.99
2016-08-12T00:25:31.599Z,99.99
2016-08-12T00:26:31.581Z,99.99
2016-08-12T00:27:30.866Z,99.99
2016-08-12T00:28:31.563Z,99.99
2016-08-12T00:29:30.841Z,99.99
2016-08-12T00:30:30.830Z,99.99
2016-08-12T00:31:30.824Z,99.99
2016-08-12T00:32:30.805Z,99.99
2016-08-12T00:33:30.799Z,99.99
2016-08-12T00:34:31.492Z,99.99
2016-08-12T00:35:30.773Z,99.99
2016-08-12T00:36:30.761Z,99.99
2016-08-12T00:37:30.752Z,99.99
2016-08-12T00:38:30.739Z,99.99
2016-08-12T00:39:30.731Z,99.99
2016-08-12T00:40:30.721Z,99.99
2016-08-12T00:41:30.709Z,99.99
2016-08-12T00:42:30.699Z,99.99
2016-08-12T00:43:30.684Z,99.99
2016-08-12T00:44:30.676Z,99.99
2016-08-12T00:45:30.676Z,99.99
2016-08-12T00:46:30.653Z,99.99
2016-08-12T00:47:30.641Z,99.99
2016-08-12T00:48:30.634Z,99.99
2016-08-12T00:49:30.628Z,99.99
2016-08-12T00:50:30.621Z,99.99
2016-08-12T00:51:30.604Z,99.99
2016-08-12T00:52:30.588Z,99.99
2016-08-12T00:53:31.284Z,99.99
2016-08-12T00:54:31.274Z,99.99
2016-08-12T00:55:31.263Z,99.99
2016-08-12T00:56:31.251Z,99.99
2016-08-12T00:57:30.535Z,99.99
2016-08-12T00:58:31.236Z,99.99
2016-08-12T00:59:30.515Z,99.99
2016-08-12T01:00:31.217Z,99.99
2016-08-12T01:01:30.503Z,99.99
2016-08-12T01:02:31.187Z,99.99
2016-08-12T01:03:31.173Z,99.99
2016-08-12T01:04:31.169Z,99.99
2016-08-12T01:05:30.448Z,99.99
2016-08-12T01:06:30.443Z,99.99
2016-08-12T01:07:31.131Z,99.99
2016-08-12T01:08:30.415Z,99.99
2016-08-12T01:09:30.406Z,99.99
2016-08-12T01:10:31.105Z,99.99
2016-08-12T01:11:30.379Z,99.99
2016-08-12T01:12:30.375Z,99.99
2016-08-12T01:13:31.065Z,99.99
2016-08-12T01:14:31.054Z,99.99
2016-08-12T01:15:31.045Z,99.99
2016-08-12T01:16:30.328Z,99.99
2016-08-12T01:17:30.328Z,99.99
2016-08-12T01:18:30.303Z,99.99
2016-08-12T01:19:30.292Z,99.99
2016-08-12T01:20:30.285Z,99.99
2016-08-12T01:21:30.271Z,99.99
2016-08-12T01:22:30.261Z,99.99
2016-08-12T01:23:30.973Z,99.99
2016-08-12T01:24:30.242Z,99.99
2016-08-12T01:25:30.229Z,99.99
2016-08-12T01:26:30.227Z,99.99
2016-08-12T01:27:30.208Z,99.99
2016-08-12T01:28:30.900Z,99.99
2016-08-12T01:29:30.185Z,99.99
2016-08-12T01:30:30.176Z,99.99
2016-08-12T01:31:30.174Z,99.99
2016-08-12T01:32:30.153Z,99.99
2016-08-12T01:34:30.133Z,99.99
2016-08-12T01:35:30.121Z,99.99
2016-08-12T01:36:30.820Z,99.99
2016-08-12T01:37:30.108Z,99.99
2016-08-12T01:38:30.090Z,99.99
2016-08-12T01:39:30.078Z,99.99
2016-08-12T01:40:30.069Z,99.99
2016-08-12T01:41:30.763Z,99.99
2016-08-12T01:42:30.048Z,99.99
2016-08-12T01:43:30.038Z,99.99
2016-08-12T01:44:30.028Z,99.99
2016-08-12T01:45:30.012Z,99.99
2016-08-12T01:46:30.709Z,99.99
2016-08-12T01:47:30.707Z,99.99
2016-08-12T01:49:30.678Z,99.99
2016-08-12T01:50:30.669Z,99.99
2016-08-12T01:51:30.658Z,99.99
2016-08-12T01:52:29.945Z,99.99
2016-08-12T01:53:29.929Z,99.99
2016-08-12T01:54:29.917Z,99.99
2016-08-12T01:55:29.907Z,99.99
2016-08-12T01:56:30.602Z,99.99
2016-08-12T01:57:29.887Z,99.99
2016-08-12T01:58:30.580Z,99.99
2016-08-12T01:59:29.865Z,99.99
2016-08-12T02:00:30.573Z,99.99
2016-08-12T02:01:29.842Z,99.99
2016-08-12T02:02:29.833Z,99.99
2016-08-12T02:04:29.813Z,99.99
2016-08-12T02:05:30.505Z,99.99
2016-08-12T02:06:30.499Z,99.99
2016-08-12T02:07:29.784Z,99.99
2016-08-12T02:08:29.769Z,99.99
2016-08-12T02:09:30.467Z,99.99
2016-08-12T02:10:30.458Z,99.99
2016-08-12T02:11:29.735Z,99.99
2016-08-12T02:12:29.726Z,99.99
2016-08-12T02:13:29.733Z,99.99
2016-08-12T02:14:29.712Z,99.99
2016-08-12T02:15:30.402Z,99.99
2016-08-12T02:16:30.392Z,99.99
2016-08-12T02:17:29.696Z,99.99
2016-08-12T02:19:29.658Z,99.99
2016-08-12T02:20:29.643Z,99.99
2016-08-12T02:21:29.630Z,99.99
2016-08-12T02:22:29.617Z,99.99
2016-08-12T02:23:30.321Z,99.99
2016-08-12T02:24:30.305Z,99.99
2016-08-12T02:25:29.591Z,99.99
2016-08-12T02:26:30.285Z,99.99
2016-08-12T02:27:29.573Z,99.99
2016-08-12T02:28:30.266Z,99.99
2016-08-12T02:29:30.255Z,99.99
2016-08-12T02:30:30.263Z,99.99
2016-08-12T02:31:29.528Z,99.99
2016-08-12T02:32:30.224Z,99.99
2016-08-12T02:34:30.203Z,99.99
2016-08-12T02:35:29.501Z,99.99
2016-08-12T02:36:29.479Z,99.99
2016-08-12T02:37:30.168Z,99.99
2016-08-12T02:38:29.450Z,99.99
2016-08-12T02:39:29.443Z,99.99
2016-08-12T02:40:29.430Z,99.99
2016-08-12T02:41:30.129Z,99.99
2016-08-12T02:42:29.409Z,99.99
2016-08-12T02:43:29.399Z,99.99
2016-08-12T02:44:29.387Z,99.99
2016-08-12T02:45:29.376Z,99.99
2016-08-12T02:46:30.077Z,99.99
2016-08-12T02:47:29.352Z,99.99
2016-08-12T02:48:30.073Z,99.99
2016-08-12T02:49:30.039Z,99.99
2016-08-12T02:50:29.330Z,99.99
2016-08-12T02:51:29.316Z,99.99
2016-08-12T02:52:29.302Z,99.99
2016-08-12T02:53:30.001Z,99.99
2016-08-12T02:54:29.987Z,99.99
2016-08-12T02:55:29.280Z,99.99
2016-08-12T02:56:29.972Z,99.99
2016-08-12T02:57:29.253Z,99.99
2016-08-12T02:58:29.954Z,99.99
2016-08-12T02:59:29.937Z,99.99
2016-08-12T03:00:29.220Z,99.99
2016-08-12T03:01:29.208Z,99.99
2016-08-12T03:02:29.905Z,99.99
2016-08-12T03:04:29.176Z,99.99
2016-08-12T03:05:29.167Z,99.99
2016-08-12T03:06:29.155Z,99.99
2016-08-12T03:07:29.851Z,99.99
2016-08-12T03:08:29.133Z,99.99
2016-08-12T03:09:29.323Z,99.99
2016-08-12T03:10:29.115Z,99.99
2016-08-12T03:11:29.101Z,99.99
2016-08-12T03:12:29.092Z,99.99
2016-08-12T03:13:29.079Z,99.99
2016-08-12T03:14:29.071Z,99.99
2016-08-12T03:15:29.767Z,99.99
2016-08-12T03:16:29.048Z,99.99
2016-08-12T03:17:29.745Z,99.99
2016-08-12T03:18:29.029Z,99.99
2016-08-12T03:19:29.728Z,99.99
2016-08-12T03:20:29.006Z,99.99
2016-08-12T03:21:28.996Z,99.99
2016-08-12T03:22:28.987Z,99.99
2016-08-12T03:23:29.684Z,99.99
2016-08-12T03:24:29.671Z,99.99
2016-08-12T03:25:29.665Z,99.99
2016-08-12T03:26:29.656Z,99.99
2016-08-12T03:27:29.640Z,99.99
2016-08-12T03:28:28.923Z,99.99
2016-08-12T03:29:28.917Z,99.99
2016-08-12T03:30:28.909Z,99.99
2016-08-12T03:31:29.600Z,99.99
2016-08-12T03:32:29.588Z,99.99
2016-08-12T09:34:22.601Z,99.99
2016-08-12T09:35:21.887Z,99.99
2016-08-12T09:36:21.875Z,99.99
2016-08-12T09:37:22.573Z,99.99
2016-08-12T09:38:22.564Z,99.99
2016-08-12T09:39:22.552Z,99.99
2016-08-12T09:40:22.555Z,99.99
2016-08-12T09:41:22.536Z,99.99
2016-08-12T09:42:21.823Z,99.99
2016-08-12T09:43:21.815Z,99.99
2016-08-12T09:44:21.801Z,99.99
2016-08-12T09:45:21.807Z,99.99
2016-08-12T09:46:21.790Z,99.99
2016-08-12T09:47:21.777Z,99.99
2016-08-12T09:48:21.771Z,99.99
2016-08-12T09:49:22.474Z,99.99
2016-08-12T09:50:21.754Z,99.99
2016-08-12T09:51:21.746Z,99.99
2016-08-12T09:52:22.442Z,99.99
2016-08-12T09:53:21.738Z,99.99
2016-08-12T09:54:21.719Z,99.99
2016-08-12T09:55:22.416Z,99.99
2016-08-12T09:56:21.705Z,99.99
2016-08-12T09:57:22.404Z,99.99
2016-08-12T09:58:22.396Z,99.99
2016-08-12T09:59:22.392Z,99.99
2016-08-12T10:00:21.668Z,99.99
2016-08-12T10:01:22.381Z,99.99
2016-08-12T10:02:22.364Z,99.99
2016-08-12T10:03:22.352Z,99.99
2016-08-12T10:04:22.351Z,99.99
2016-08-12T10:05:21.621Z,99.99
2016-08-12T10:06:22.337Z,99.99
2016-08-12T10:07:21.620Z,99.99
2016-08-12T10:08:22.314Z,99.99
2016-08-12T10:09:21.600Z,99.99
2016-08-12T10:10:22.299Z,99.99
2016-08-12T10:11:21.586Z,99.99
2016-08-12T10:12:21.578Z,99.99
2016-08-12T10:13:22.276Z,99.99
2016-08-12T10:14:21.563Z,99.99
2016-08-12T10:15:21.560Z,99.99
2016-08-12T10:16:21.551Z,99.99
2016-08-12T10:17:21.538Z,99.99
2016-08-12T10:18:22.239Z,99.99
2016-08-12T10:19:22.231Z,99.99
2016-08-12T10:21:22.220Z,99.99
2016-08-12T10:22:22.211Z,99.99
2016-08-12T10:23:22.211Z,99.99
2016-08-12T10:24:21.488Z,99.99
2016-08-12T10:25:22.184Z,99.99
2016-08-12T10:26:21.485Z,99.99
2016-08-12T10:27:21.468Z,99.99
2016-08-12T10:28:21.469Z,99.99
2016-08-12T10:29:21.451Z,99.99
2016-08-12T10:30:22.151Z,99.99
2016-08-12T10:31:21.438Z,99.99
2016-08-12T10:32:22.133Z,99.99
2016-08-12T10:33:21.421Z,99.99
2016-08-12T10:34:22.128Z,99.99
2016-08-12T10:36:21.396Z,99.99
2016-08-12T10:37:21.387Z,99.99
2016-08-12T10:38:22.086Z,99.99
2016-08-12T10:39:21.373Z,99.99
2016-08-12T10:40:22.094Z,99.99
2016-08-12T10:41:21.356Z,99.99
2016-08-12T10:42:21.346Z,99.99
2016-08-12T10:43:21.340Z,99.99
2016-08-12T10:44:21.332Z,99.99
2016-08-12T10:45:22.081Z,99.99
2016-08-12T10:46:21.320Z,99.99
2016-08-12T10:47:22.024Z,99.99
2016-08-12T10:48:22.008Z,99.99
2016-08-12T10:49:21.299Z,99.99
2016-08-12T10:51:21.274Z,99.99
2016-08-12T10:52:21.977Z,99.99
2016-08-12T10:53:21.264Z,99.99
2016-08-12T10:54:21.253Z,99.99
2016-08-12T10:55:21.957Z,99.99
2016-08-12T10:56:21.947Z,99.99
2016-08-12T10:57:21.947Z,99.99
2016-08-12T10:58:21.219Z,99.99
2016-08-12T10:59:21.931Z,99.99
2016-08-12T11:00:21.204Z,99.99
2016-08-12T11:01:21.193Z,99.99
2016-08-12T11:02:21.897Z,99.99
2016-08-12T11:03:21.907Z,99.99
2016-08-12T11:04:21.885Z,99.99
2016-08-12T11:06:21.864Z,99.99
2016-08-12T11:07:21.151Z,99.99
2016-08-12T11:08:21.145Z,99.99
2016-08-12T11:09:21.844Z,99.99
2016-08-12T11:10:21.129Z,99.99
2016-08-12T11:11:21.835Z,99.99
2016-08-12T11:12:21.824Z,99.99
2016-08-12T11:13:21.822Z,99.99
2016-08-12T11:14:21.095Z,99.99
2016-08-12T11:15:21.087Z,99.99
2016-08-12T11:16:21.078Z,99.99
2016-08-12T11:17:21.075Z,99.99
2016-08-12T11:18:21.770Z,99.99
2016-08-12T11:19:21.759Z,99.99
2016-08-12T11:21:21.744Z,99.99
2016-08-12T11:22:21.738Z,99.99
2016-08-12T11:23:21.025Z,99.99
2016-08-12T11:24:21.029Z,99.99
2016-08-12T11:25:21.005Z,99.99
2016-08-12T11:26:20.998Z,99.99
2016-08-12T11:27:21.696Z,99.99
2016-08-12T11:28:21.705Z,99.99
2016-08-12T11:29:20.976Z,99.99
2016-08-12T11:30:21.760Z,99.99
2016-08-12T11:31:20.959Z,99.99
2016-08-12T11:32:20.951Z,99.99
2016-08-12T11:33:21.649Z,99.99
2016-08-12T11:34:20.935Z,99.99
2016-08-12T11:35:20.930Z,99.99
2016-08-12T11:36:20.921Z,99.99
2016-08-12T11:37:21.622Z,99.99
2016-08-12T11:38:20.904Z,99.99
2016-08-12T11:39:21.605Z,99.99
2016-08-12T11:40:20.892Z,99.99
2016-08-12T11:41:21.590Z,99.99
2016-08-12T11:42:21.592Z,99.99
2016-08-12T11:43:21.575Z,99.99
2016-08-12T11:44:21.565Z,99.99
2016-08-12T11:45:21.558Z,99.99
2016-08-12T11:46:21.549Z,99.99
2016-08-12T11:47:21.543Z,99.99
2016-08-12T11:48:21.554Z,99.99
2016-08-12T11:49:21.528Z,99.99
2016-08-12T11:50:21.529Z,99.99
2016-08-12T11:51:21.514Z,99.99
2016-08-12T11:52:21.507Z,99.99
2016-08-12T11:53:20.792Z,99.99
2016-08-12T11:54:20.790Z,99.99
2016-08-12T11:55:20.778Z,99.99
2016-08-12T11:56:20.776Z,99.99
2016-08-12T11:57:20.771Z,99.99
2016-08-12T11:58:20.759Z,99.99
2016-08-12T11:59:21.470Z,99.99
2016-08-12T12:00:20.745Z,99.99
2016-08-12T12:01:21.445Z,99.99
2016-08-12T12:02:20.730Z,99.99
2016-08-12T12:03:21.433Z,99.99
2016-08-12T12:04:21.427Z,99.99
2016-08-12T12:05:21.422Z,99.99
2016-08-12T12:06:21.411Z,99.99
2016-08-12T12:07:21.403Z,99.99
2016-08-12T12:08:21.403Z,99.99
2016-08-12T12:09:21.389Z,99.99
2016-08-12T12:10:20.675Z,99.99
2016-08-12T12:11:21.379Z,99.99
2016-08-12T12:12:21.367Z,99.99
2016-08-12T12:13:20.653Z,99.99
2016-08-12T12:14:20.646Z,99.99
2016-08-12T12:15:20.641Z,99.99
2016-08-12T12:16:21.348Z,99.99
2016-08-12T12:17:20.627Z,99.99
2016-08-12T12:18:21.329Z,99.99
2016-08-12T12:19:21.324Z,99.99
2016-08-12T12:20:21.314Z,99.99
2016-08-12T12:21:20.599Z,99.99
2016-08-12T12:22:21.299Z,99.99
2016-08-12T12:23:20.584Z,99.99
2016-08-12T12:24:21.285Z,99.99
2016-08-12T12:25:20.566Z,99.99
2016-08-12T12:26:21.272Z,99.99
2016-08-12T12:27:21.262Z,99.99
2016-08-12T12:28:21.260Z,99.99
2016-08-12T12:29:20.545Z,99.99
2016-08-12T12:30:21.247Z,99.99
2016-08-12T12:31:20.526Z,99.99
2016-08-12T12:32:20.526Z,99.99
2016-08-12T12:33:20.538Z,99.99
2016-08-12T12:34:20.509Z,99.99
2016-08-12T12:35:21.279Z,99.99
2016-08-12T12:36:21.198Z,99.99
2016-08-12T12:37:20.488Z,99.99
2016-08-12T12:38:20.488Z,99.99
2016-08-12T12:39:20.472Z,99.99
2016-08-12T12:41:21.178Z,99.99
2016-08-12T12:42:20.449Z,99.99
2016-08-12T12:43:21.170Z,99.99
2016-08-12T12:44:20.456Z,99.99
2016-08-12T12:45:20.434Z,99.99
2016-08-12T12:46:21.134Z,99.99
2016-08-12T12:47:20.426Z,99.99
2016-08-12T12:48:20.415Z,99.99
2016-08-12T12:49:21.110Z,99.99
2016-08-12T12:50:21.105Z,99.99
2016-08-12T12:51:21.113Z,99.99
2016-08-12T12:52:20.381Z,99.99
2016-08-12T12:54:21.081Z,99.99
2016-08-12T12:55:21.073Z,99.99
2016-08-12T12:56:20.359Z,99.99
2016-08-12T12:57:20.351Z,99.99
2016-08-12T12:58:20.343Z,99.99
2016-08-12T12:59:21.045Z,99.99
2016-08-12T13:00:21.042Z,99.99
2016-08-12T13:01:20.327Z,99.99
2016-08-12T13:02:20.317Z,99.99
2016-08-12T13:03:20.312Z,99.99
2016-08-12T13:04:20.310Z,99.99
2016-08-12T13:05:20.297Z,99.99
2016-08-12T13:06:21.014Z,99.99
2016-08-12T13:07:20.992Z,99.99
2016-08-12T13:08:20.281Z,99.99
2016-08-12T13:09:20.270Z,99.99
2016-08-12T13:10:20.276Z,99.99
2016-08-12T13:11:20.260Z,99.99
2016-08-12T13:12:20.248Z,99.99
2016-08-12T13:13:20.241Z,99.99
2016-08-12T13:14:20.943Z,99.99
2016-08-12T13:15:20.939Z,99.99
2016-08-12T13:16:20.230Z,99.99
2016-08-12T13:17:20.217Z,99.99
2016-08-12T13:18:20.235Z,99.99
2016-08-12T13:19:20.908Z,99.99
2016-08-12T13:20:20.195Z,99.99
2016-08-12T13:21:20.894Z,99.99
2016-08-12T13:22:20.181Z,99.99
2016-08-12T13:23:20.177Z,99.99
2016-08-12T13:24:20.167Z,99.99
2016-08-12T13:25:20.161Z,99.99
2016-08-12T13:26:20.878Z,99.99
2016-08-12T13:27:20.147Z,99.99
2016-08-12T13:28:20.144Z,99.99
2016-08-12T13:29:20.133Z,99.99
2016-08-12T13:30:20.834Z,99.99
2016-08-12T13:31:20.120Z,99.99
2016-08-12T13:32:20.123Z,99.99
2016-08-12T13:33:20.106Z,99.99
2016-08-12T13:34:20.804Z,99.99
2016-08-12T13:35:20.090Z,99.99
2016-08-12T13:36:20.085Z,99.99
2016-08-12T13:37:20.079Z,99.99
2016-08-12T13:38:20.072Z,99.99
2016-08-12T13:39:20.780Z,99.99
2016-08-12T13:40:20.058Z,99.99
2016-08-12T13:41:20.051Z,99.99
2016-08-12T13:42:20.041Z,99.99
2016-08-12T13:43:20.742Z,99.99
2016-08-12T13:44:20.738Z,99.99
2016-08-12T13:45:20.728Z,99.99
2016-08-12T13:46:20.722Z,99.99
2016-08-12T13:47:20.718Z,99.99
2016-08-12T13:48:20.001Z,99.99
2016-08-12T13:49:20.702Z,99.99
2016-08-12T13:50:20.704Z,99.99
2016-08-12T13:51:20.691Z,99.99
2016-08-12T13:52:20.683Z,99.99
2016-08-12T13:53:19.971Z,99.99
2016-08-12T13:54:20.670Z,99.99
2016-08-12T13:55:19.954Z,99.99
2016-08-12T13:56:19.960Z,99.99
2016-08-12T13:57:19.940Z,99.99
2016-08-12T13:58:19.942Z,99.99
2016-08-12T13:59:19.928Z,99.99
2016-08-12T14:00:20.631Z,99.99
2016-08-12T14:01:19.919Z,99.99
2016-08-12T14:02:19.908Z,99.99
2016-08-12T14:03:20.608Z,99.99
2016-08-12T14:04:19.892Z,99.99
2016-08-12T14:05:19.901Z,99.99
2016-08-12T14:06:19.882Z,99.99
2016-08-12T14:07:19.872Z,99.99
2016-08-12T14:08:20.576Z,99.99
2016-08-12T14:09:19.863Z,99.99
2016-08-12T14:10:19.855Z,99.99
2016-08-12T14:11:20.555Z,99.99
2016-08-12T14:12:20.557Z,99.99
2016-08-12T14:13:19.837Z,99.99
2016-08-12T14:14:19.829Z,99.99
2016-08-12T14:15:19.824Z,99.99
2016-08-12T14:16:19.819Z,99.99
2016-08-12T14:17:20.520Z,99.99
2016-08-12T14:18:19.808Z,99.99
2016-08-12T14:19:19.803Z,99.99
2016-08-12T14:20:20.499Z,99.99
2016-08-12T14:21:19.788Z,99.99
2016-08-12T14:22:20.488Z,99.99
2016-08-12T14:24:19.769Z,99.99
2016-08-12T14:25:20.466Z,99.99
2016-08-12T14:26:19.760Z,99.99
2016-08-12T14:27:19.749Z,99.99
2016-08-12T14:28:19.741Z,99.99
2016-08-12T14:29:20.443Z,99.99
2016-08-12T14:30:20.439Z,99.99
2016-08-12T14:31:20.440Z,99.99
2016-08-12T14:32:19.720Z,99.99
2016-08-12T14:33:19.711Z,99.99
2016-08-12T14:34:19.706Z,99.99
2016-08-12T14:35:19.696Z,99.99
2016-08-12T14:36:20.412Z,99.99
2016-08-12T14:37:19.691Z,99.99
2016-08-12T14:38:20.609Z,99.99
2016-08-12T14:39:19.679Z,99.99
2016-08-12T14:40:19.670Z,99.99
2016-08-12T14:41:20.370Z,99.99
2016-08-12T14:42:20.366Z,99.99
2016-08-12T14:43:20.359Z,99.99
2016-08-12T14:44:19.643Z,99.99
2016-08-12T14:45:19.637Z,99.99
2016-08-12T14:46:20.340Z,99.99
2016-08-12T14:47:19.630Z,99.99
2016-08-12T14:48:19.620Z,99.99
2016-08-12T14:49:20.323Z,99.99
2016-08-12T14:50:19.608Z,99.21
2016-08-12T14:51:20.324Z,99.99
2016-08-12T14:52:20.303Z,99.99
2016-08-12T14:53:19.591Z,99.99
2016-08-12T14:54:20.290Z,99.99
2016-08-12T14:55:19.581Z,99.99
2016-08-12T14:56:19.572Z,99.99
2016-08-12T14:57:19.566Z,99.99
2016-08-12T14:58:19.562Z,98.05
2016-08-12T14:59:20.262Z,99.31
2016-08-12T15:00:20.258Z,98
2016-08-12T15:01:20.252Z,98.58
2016-08-12T15:02:19.544Z,96.94
2016-08-12T15:03:20.243Z,98.25
2016-08-12T15:04:19.530Z,99.99
2016-08-12T15:05:20.230Z,99.99
2016-08-12T15:06:19.522Z,98.73
2016-08-12T15:07:19.513Z,98.73
2016-08-12T15:08:19.506Z,99.99
2016-08-12T15:09:20.209Z,99.99
2016-08-12T15:10:20.403Z,99.98
2016-08-12T15:11:20.220Z,99.99
2016-08-12T15:12:20.189Z,99.99
2016-08-12T15:13:20.184Z,99.99
2016-08-12T15:14:19.476Z,99.99
2016-08-12T15:15:20.174Z,99.99
2016-08-12T15:16:19.463Z,99.99
2016-08-12T15:17:19.456Z,99.99
2016-08-12T15:18:20.153Z,99.99
2016-08-12T15:19:19.444Z,99.99
2016-08-12T15:20:19.440Z,99.99
2016-08-12T15:21:20.137Z,99.99
2016-08-12T15:22:19.425Z,99.99
2016-08-12T15:23:20.131Z,99.99
2016-08-12T15:24:20.117Z,99.99
2016-08-12T15:25:19.406Z,99.99
2016-08-12T15:26:20.119Z,99.99
2016-08-12T15:27:19.395Z,99.99
2016-08-12T15:28:20.094Z,99.99
2016-08-12T15:29:19.391Z,99.99
2016-08-12T15:30:20.083Z,99.99
2016-08-12T15:31:20.078Z,99.99
2016-08-12T15:32:20.084Z,99.99
2016-08-12T15:33:20.066Z,99.02
2016-08-12T15:34:19.351Z,98.25
2016-08-12T15:36:19.361Z,99.6
2016-08-12T15:37:21.223Z,99.98
2016-08-12T15:38:20.037Z,99.99
2016-08-12T15:39:20.029Z,98.63
2016-08-12T15:40:19.320Z,99.98
2016-08-12T15:41:20.016Z,98.83
2016-08-12T15:42:20.030Z,97.86
2016-08-12T15:43:20.013Z,97.38
2016-08-12T15:44:19.296Z,97.19
2016-08-12T15:45:20.009Z,98.05
2016-08-12T15:46:19.290Z,98.63
2016-08-12T15:47:19.273Z,99.69
2016-08-12T15:48:19.977Z,98.34
2016-08-12T15:49:19.267Z,98.73
2016-08-12T15:50:19.256Z,98
2016-08-12T15:51:19.971Z,96.89
2016-08-12T15:52:19.246Z,95.25
2016-08-12T15:53:19.242Z,95.64
2016-08-12T15:54:19.944Z,96.7
2016-08-12T15:55:19.228Z,97.42
2016-08-12T15:56:19.223Z,97.42
2016-08-12T15:57:19.937Z,94.72
2016-08-12T15:58:19.919Z,96.99
2016-08-12T15:59:19.208Z,92.93
2016-08-12T16:00:19.199Z,91.53
2016-08-12T16:01:19.903Z,93.56
2016-08-12T16:02:19.189Z,92.59
2016-08-12T16:03:19.186Z,91.33
2016-08-12T16:04:19.885Z,92.49
2016-08-12T16:05:19.174Z,92.74
2016-08-12T16:06:19.890Z,92.55
2016-08-12T16:07:19.875Z,91
2016-08-12T16:08:19.862Z,92.55
2016-08-12T16:09:19.863Z,92.25
2016-08-12T16:10:19.150Z,94.14
2016-08-12T16:11:19.147Z,92.16
2016-08-12T16:12:19.855Z,92.35
2016-08-12T16:13:19.847Z,89.75
2016-08-12T16:14:19.848Z,91.19
2016-08-12T16:15:19.132Z,92.5
2016-08-12T16:16:19.128Z,92.69
2016-08-12T16:17:19.843Z,91.83
2016-08-12T16:18:19.823Z,92.21
2016-08-12T16:19:19.873Z,93.08
2016-08-12T16:20:19.813Z,93.66
2016-08-12T16:21:19.101Z,95.54
2016-08-12T16:22:19.095Z,95.74
2016-08-12T16:23:19.806Z,95.74
2016-08-12T16:24:19.800Z,94.62
2016-08-12T16:25:19.834Z,93.8
2016-08-12T16:26:19.781Z,94.96
2016-08-12T16:27:19.065Z,96.22
2016-08-12T16:28:19.772Z,96.41
2016-08-12T16:29:19.759Z,96.99
2016-08-12T16:30:19.761Z,97.28
2016-08-12T16:31:19.042Z,96.51
2016-08-12T16:32:19.754Z,97.04
2016-08-12T16:33:19.141Z,96.99
2016-08-12T16:34:19.028Z,96.99
2016-08-12T16:35:19.020Z,96.99
2016-08-12T16:36:19.787Z,97.67
2016-08-12T16:37:19.723Z,95.74
2016-08-12T16:38:19.716Z,97.96
2016-08-12T16:39:19.701Z,97.19
2016-08-12T16:40:19.717Z,96.61
2016-08-12T16:41:19.697Z,96.31
2016-08-12T16:42:19.687Z,97.47
2016-08-12T16:43:18.975Z,97.67
2016-08-12T16:44:19.668Z,97.24
2016-08-12T16:45:18.960Z,95.93
2016-08-12T16:46:18.948Z,98.58
2016-08-12T16:47:18.952Z,96.17
2016-08-12T16:48:19.650Z,96.66
2016-08-12T16:49:18.946Z,96.27
2016-08-12T16:50:18.929Z,95.98
2016-08-12T16:51:18.927Z,95.59
2016-08-12T16:52:18.929Z,94.34
2016-08-12T16:53:18.911Z,95.01
2016-08-12T16:54:19.617Z,94.73
2016-08-12T16:55:19.611Z,94.92
2016-08-12T16:56:18.891Z,95.79
2016-08-12T16:57:19.589Z,95.64
2016-08-12T16:58:18.876Z,96.84
2016-08-12T16:59:19.578Z,96.08
2016-08-12T17:00:18.866Z,96.56
2016-08-12T17:01:18.865Z,96.75
2016-08-12T17:02:18.957Z,96.27
2016-08-12T17:03:18.859Z,96.84
2016-08-12T17:04:18.842Z,96.84
2016-08-12T17:05:18.833Z,96.84
2016-08-12T17:06:19.533Z,96.75
2016-08-12T17:07:18.825Z,98
2016-08-12T17:08:19.527Z,96.56
2016-08-12T17:09:18.803Z,96.56
2016-08-12T17:10:19.512Z,95.98
2016-08-12T17:11:18.789Z,95.98
2016-08-12T17:12:19.499Z,96.66
2016-08-12T17:13:19.494Z,97.24
2016-08-12T17:14:19.487Z,96.94
2016-08-12T17:15:18.763Z,96.94
2016-08-12T17:16:18.772Z,97.52
2016-08-12T17:17:19.468Z,97.04
2016-08-12T17:18:18.744Z,97.14
2016-08-12T17:19:19.445Z,96.8
2016-08-12T17:20:19.438Z,97.33
2016-08-12T17:21:18.726Z,96.7
2016-08-12T17:22:18.724Z,97.67
2016-08-12T17:23:18.710Z,97.77
2016-08-12T17:24:18.703Z,97.47
2016-08-12T17:25:19.403Z,97.28
2016-08-12T17:26:18.688Z,98.25
2016-08-12T17:27:19.393Z,97.67
2016-08-12T17:28:18.674Z,98.15
2016-08-12T17:29:19.379Z,98.82
2016-08-12T17:30:19.370Z,99.4
2016-08-12T17:31:19.362Z,98.73
2016-08-12T17:32:18.651Z,98.34
2016-08-12T17:33:18.895Z,99.02
2016-08-12T17:34:19.379Z,99.26
2016-08-12T17:35:18.631Z,98.39
2016-08-12T17:36:18.622Z,99.07
2016-08-12T17:37:18.622Z,99.45
2016-08-12T17:38:19.318Z,99.64
2016-08-12T17:39:19.430Z,99.99
2016-08-12T17:40:18.594Z,99.99
2016-08-12T17:41:18.606Z,99.99
2016-08-12T17:42:19.294Z,99.99
2016-08-12T17:43:19.285Z,99.99
2016-08-12T17:44:18.568Z,99.99
2016-08-12T17:45:18.563Z,99.99
2016-08-12T17:46:19.263Z,99.99
2016-08-12T17:47:19.252Z,99.99
2016-08-12T17:48:19.260Z,99.99
2016-08-12T17:49:18.534Z,99.99
2016-08-12T17:50:18.531Z,99.99
2016-08-12T17:51:18.523Z,99.99
2016-08-12T17:52:19.218Z,99.99
2016-08-12T17:53:18.508Z,99.99
2016-08-12T17:54:18.494Z,99.99
2016-08-12T17:55:18.490Z,99.99
2016-08-12T17:56:18.484Z,99.99
2016-08-12T17:57:19.183Z,99.99
2016-08-12T17:58:18.471Z,99.99
2016-08-12T17:59:18.461Z,99.99
2016-08-12T18:00:19.163Z,99.99
2016-08-12T18:01:18.446Z,99.99
2016-08-12T18:02:18.442Z,99.99
2016-08-12T18:03:18.439Z,99.99
2016-08-12T18:04:18.428Z,99.99
2016-08-12T18:05:18.420Z,99.99
2016-08-12T18:06:18.411Z,99.99
2016-08-12T18:07:18.409Z,99.99
2016-08-12T18:08:19.106Z,99.99
2016-08-12T18:09:19.106Z,99.99
2016-08-12T18:10:19.092Z,99.99
2016-08-12T18:11:19.086Z,99.99
2016-08-12T18:12:18.373Z,99.99
2016-08-12T18:13:18.375Z,99.99
2016-08-12T18:14:18.355Z,99.99
2016-08-12T18:15:18.347Z,99.99
2016-08-12T18:16:18.342Z,99.99
2016-08-12T18:17:19.051Z,99.99
2016-08-12T18:18:19.037Z,99.99
2016-08-12T18:19:18.321Z,99.99
2016-08-12T18:20:18.311Z,99.99
2016-08-12T18:21:18.313Z,99.99
2016-08-12T18:22:18.302Z,99.99
2016-08-12T18:23:18.290Z,99.99
2016-08-12T18:24:18.282Z,99.99
2016-08-12T18:25:18.289Z,99.99
2016-08-12T18:26:18.977Z,99.99
2016-08-12T18:27:18.972Z,99.99
2016-08-12T18:28:18.257Z,99.99
2016-08-12T18:29:18.250Z,99.99
2016-08-12T18:30:18.951Z,99.99
2016-08-12T18:31:18.940Z,99.99
2016-08-12T18:32:18.226Z,99.99
2016-08-12T18:33:18.221Z,99.99
2016-08-12T18:34:18.211Z,99.99
2016-08-12T18:35:18.203Z,99.99
2016-08-12T18:36:18.905Z,99.99
2016-08-12T18:37:18.190Z,99.99
2016-08-12T18:38:18.183Z,99.99
2016-08-12T18:39:18.894Z,99.99
2016-08-12T18:40:18.170Z,99.99
2016-08-12T18:41:18.162Z,99.99
2016-08-12T18:42:18.155Z,99.99
2016-08-12T18:43:18.148Z,99.99
2016-08-12T18:44:18.850Z,99.99
2016-08-12T18:45:18.133Z,99.99
2016-08-12T18:46:18.124Z,99.99
2016-08-12T18:47:18.834Z,99.99
2016-08-12T18:48:18.123Z,99.99
2016-08-12T18:49:18.812Z,99.99
2016-08-12T18:50:18.099Z,99.99
2016-08-12T18:51:18.088Z,99.99
2016-08-12T18:52:18.083Z,99.99
2016-08-12T18:53:18.075Z,99.99
2016-08-12T18:54:18.775Z,99.99
2016-08-12T18:55:18.766Z,99.99
2016-08-12T18:56:18.053Z,99.99
2016-08-12T18:57:18.042Z,99.99
2016-08-12T18:58:18.036Z,99.99
2016-08-12T18:59:18.030Z,99.99
2016-08-12T19:00:18.033Z,99.99
2016-08-12T19:01:18.023Z,99.99
2016-08-12T19:02:18.008Z,99.99
2016-08-12T19:03:18.706Z,99.99
2016-08-12T19:04:17.993Z,99.99
2016-08-12T19:05:17.984Z,99.99
2016-08-12T19:06:17.980Z,99.99
2016-08-12T19:07:18.677Z,99.99
2016-08-12T19:08:17.965Z,99.99
2016-08-12T19:09:17.956Z,99.99